Time;durP1;ratioP1;P1;durP2;ratioP2;P2;SDS_P1;SDS_P2;PMS_P1;PMS_P2;Temp;Humidity;BMP_temperature;BMP_pressure;BME280_temperature;BME280_humidity;BME280_pressure;Samples;Min_cycle;Max_cycle;Signal;HPM_P1;HPM_P2
2022/07/30 00:00:11;;;;;;;9.52;9.23;;;18.10;99.90;;;;;;5056221;28;20216;-88
2022/07/30 00:02:47;;;;;;;9.15;8.85;;;18.00;99.90;;;;;;5048599;28;20231;-88
2022/07/30 00:08:07;;;;;;;8.93;8.63;;;18.00;99.90;;;;;;5043213;28;20314;-87
2022/07/30 00:13:23;;;;;;;9.00;8.70;;;17.90;99.90;;;;;;5049963;28;20231;-88
2022/07/30 00:15:58;;;;;;;9.10;8.80;;;17.90;99.90;;;;;;5043787;28;20313;-91
2022/07/30 00:18:31;;;;;;;9.00;8.70;;;17.90;99.90;;;;;;5043213;28;20231;-88
2022/07/30 00:21:05;;;;;;;9.02;8.73;;;17.90;99.90;;;;;;5057677;28;20203;-89
2022/07/30 00:23:47;;;;;;;9.10;8.80;;;17.90;99.90;;;;;;5061152;28;20225;-89
2022/07/30 00:26:25;;;;;;;9.20;8.90;;;17.90;99.90;;;;;;5061159;28;20219;-88
2022/07/30 00:29:00;;;;;;;9.20;8.90;;;17.90;99.90;;;;;;5060962;28;20279;-89
2022/07/30 00:31:52;;;;;;;9.18;8.88;;;17.90;99.90;;;;;;5060313;28;20263;-89
2022/07/30 00:34:26;;;;;;;9.00;8.70;;;17.80;99.90;;;;;;5052103;28;20252;-88
2022/07/30 00:37:06;;;;;;;9.27;8.98;;;17.80;99.90;;;;;;5046654;28;20278;-89
2022/07/30 00:39:52;;;;;;;9.10;8.80;;;17.80;99.90;;;;;;5043708;28;20335;-88
2022/07/30 00:42:24;;;;;;;9.07;8.77;;;17.80;99.90;;;;;;5044028;28;20224;-87
2022/07/30 00:51:19;;;;;;;9.00;8.70;;;17.70;99.90;;;;;;5163498;27;20287;-89
2022/07/30 00:56:48;;;;;;;9.30;9.00;;;17.70;99.90;;;;;;5145809;27;20271;-88
2022/07/30 00:59:20;;;;;;;9.15;8.85;;;17.70;99.90;;;;;;5142998;27;20284;-88
2022/07/30 01:02:11;;;;;;;9.20;8.90;;;17.70;99.90;;;;;;5142610;27;20231;-89
2022/07/30 01:04:45;;;;;;;9.23;8.93;;;17.70;99.90;;;;;;5143726;27;20235;-88
2022/07/30 01:07:33;;;;;;;9.07;8.77;;;17.60;99.90;;;;;;5155936;27;20211;-88
2022/07/30 01:10:04;;;;;;;9.20;8.90;;;17.60;99.90;;;;;;5158147;27;20224;-87
2022/07/30 01:12:39;;;;;;;9.10;8.80;;;17.60;99.90;;;;;;5150320;27;20266;-87
2022/07/30 01:15:12;;;;;;;9.10;8.80;;;17.50;99.90;;;;;;5157482;27;20237;-88
2022/07/30 01:17:43;;;;;;;9.30;9.00;;;17.50;99.90;;;;;;5146324;27;20220;-88
2022/07/30 01:20:26;;;;;;;9.20;8.90;;;17.50;99.90;;;;;;5144136;27;20229;-88
2022/07/30 01:23:20;;;;;;;9.20;8.90;;;17.50;99.90;;;;;;5142495;27;20267;-88
2022/07/30 01:29:23;;;;;;;9.30;9.00;;;17.40;99.90;;;;;;5141456;27;20303;-87
2022/07/30 01:32:13;;;;;;;;;;;;;;;;;;;;;
2022/07/30 01:44:18;;;;;;;;;;;;;;;;;;;;;
2022/07/30 01:46:51;;;;;;;8.75;8.55;;;17.20;99.90;;;;;;5139713;27;20255;-88
2022/07/30 01:49:40;;;;;;;9.02;8.73;;;17.20;99.90;;;;;;5141261;27;20224;-88
2022/07/30 01:52:18;;;;;;;9.18;8.88;;;17.10;99.90;;;;;;5140775;27;20217;-88
2022/07/30 01:54:59;;;;;;;9.13;8.82;;;17.10;99.90;;;;;;5141737;27;20327;-88
2022/07/30 01:57:45;;;;;;;9.18;8.88;;;17.00;99.90;;;;;;5137374;27;20235;-88
2022/07/30 02:09:08;;;;;;;9.23;8.93;;;16.90;99.90;;;;;;5126511;27;20695;-89
2022/07/30 02:14:58;;;;;;;9.13;8.82;;;16.90;99.90;;;;;;5127924;27;20209;-88
2022/07/30 02:17:54;;;;;;;9.40;9.10;;;16.90;99.90;;;;;;5127560;28;20232;-89
2022/07/30 02:20:35;;;;;;;9.27;8.98;;;16.90;99.90;;;;;;5128027;28;20236;-88
2022/07/30 02:23:38;;;;;;;9.10;8.80;;;16.90;99.90;;;;;;5127539;27;20221;-89
2022/07/30 02:29:02;;;;;;;9.00;8.70;;;16.90;99.90;;;;;;5129947;28;20239;-88
2022/07/30 02:31:33;;;;;;;8.73;8.50;;;16.90;99.90;;;;;;5141736;27;20318;-88
2022/07/30 02:34:12;;;;;;;9.18;8.88;;;16.90;99.90;;;;;;5142702;27;20232;-88
2022/07/30 02:36:49;;;;;;;9.27;8.98;;;17.00;99.90;;;;;;5131086;28;20221;-89
2022/07/30 02:39:18;;;;;;;9.30;9.00;;;17.00;99.90;;;;;;5128291;27;20252;-88
2022/07/30 02:41:47;;;;;;;9.32;9.02;;;17.00;99.90;;;;;;5127074;28;20224;-89
2022/07/30 02:44:18;;;;;;;9.27;8.98;;;17.00;99.90;;;;;;5127332;27;20229;-89
2022/07/30 02:46:55;;;;;;;9.25;8.95;;;17.00;99.90;;;;;;5125565;27;20227;-89
2022/07/30 02:49:32;;;;;;;9.10;8.80;;;17.00;99.90;;;;;;5126419;27;20700;-89
2022/07/30 02:52:02;;;;;;;9.15;8.85;;;16.90;99.90;;;;;;5126020;27;20217;-88
2022/07/30 02:54:31;;;;;;;9.10;8.80;;;16.90;99.90;;;;;;5126409;27;20229;-89
2022/07/30 02:57:02;;;;;;;9.38;9.07;;;16.90;99.90;;;;;;5126554;28;20225;-89
2022/07/30 03:02:17;;;;;;;9.30;9.00;;;16.80;99.90;;;;;;5127026;27;20220;-89
2022/07/30 03:04:55;;;;;;;9.18;8.88;;;16.80;99.90;;;;;;5126821;27;20262;-88
2022/07/30 03:07:25;;;;;;;9.23;8.93;;;16.70;99.90;;;;;;5126941;28;20233;-89
2022/07/30 03:09:56;;;;;;;9.35;9.05;;;16.70;99.90;;;;;;5124781;27;20228;-89
2022/07/30 03:12:33;;;;;;;9.30;9.00;;;16.60;99.90;;;;;;5126391;27;20217;-89
2022/07/30 03:17:50;;;;;;;9.40;9.10;;;16.50;99.90;;;;;;5123505;27;20232;-89
2022/07/30 03:20:29;;;;;;;9.30;9.00;;;16.50;99.90;;;;;;5124842;28;20224;-89
2022/07/30 03:22:59;;;;;;;9.50;9.20;;;16.40;99.90;;;;;;5124914;27;20228;-88
2022/07/30 03:25:29;;;;;;;9.80;9.50;;;16.40;99.90;;;;;;5125696;28;20287;-88
2022/07/30 03:28:07;;;;;;;9.98;9.68;;;16.40;99.90;;;;;;5124320;27;20302;-89
2022/07/30 03:30:35;;;;;;;10.00;9.70;;;16.30;99.90;;;;;;5124655;28;20225;-88
2022/07/30 03:33:13;;;;;;;10.10;9.80;;;16.30;99.90;;;;;;5124699;27;20228;-89
2022/07/30 03:35:52;;;;;;;10.07;9.77;;;16.30;99.90;;;;;;5124872;28;20239;-89
2022/07/30 03:38:24;;;;;;;10.35;10.05;;;16.30;99.90;;;;;;5125862;28;20227;-88
2022/07/30 03:40:52;;;;;;;10.20;9.90;;;16.30;99.90;;;;;;5125358;28;20226;-88
2022/07/30 03:43:22;;;;;;;10.55;10.25;;;16.20;99.90;;;;;;5125457;27;20241;-89
2022/07/30 03:45:51;;;;;;;10.40;10.10;;;16.20;99.90;;;;;;5124206;27;20229;-89
2022/07/30 03:48:28;;;;;;;10.25;9.95;;;16.10;99.90;;;;;;5125292;28;20233;-89
2022/07/30 03:53:46;;;;;;;10.35;10.05;;;16.10;99.90;;;;;;5123608;27;20235;-88
2022/07/30 03:56:19;;;;;;;10.40;10.10;;;16.00;99.90;;;;;;5125007;27;20239;-87
2022/07/30 04:01:30;;;;;;;10.30;10.00;;;16.00;99.90;;;;;;5125441;27;20225;-88
2022/07/30 04:04:08;;;;;;;10.20;9.90;;;16.00;99.90;;;;;;5124761;28;20260;-89
2022/07/30 04:07:06;;;;;;;10.30;10.00;;;15.90;99.90;;;;;;5125165;27;20274;-89
2022/07/30 04:09:43;;;;;;;10.15;9.85;;;15.90;99.90;;;;;;5125080;28;20765;-88
2022/07/30 04:12:12;;;;;;;10.02;9.73;;;15.90;99.90;;;;;;5126045;28;20240;-88
2022/07/30 04:17:29;;;;;;;10.95;10.57;;;15.90;99.90;;;;;;5124225;28;20217;-88
2022/07/30 04:20:10;;;;;;;10.70;10.40;;;15.90;99.90;;;;;;5126073;28;20278;-88
2022/07/30 04:22:45;;;;;;;10.85;10.45;;;15.90;99.90;;;;;;5124964;27;20703;-87
2022/07/30 04:25:15;;;;;;;10.68;10.38;;;15.90;99.90;;;;;;5125231;27;20224;-88
2022/07/30 04:27:43;;;;;;;10.73;10.43;;;15.90;99.90;;;;;;5124129;27;20274;-89
2022/07/30 04:30:14;;;;;;;10.60;10.30;;;15.90;99.90;;;;;;5124905;28;20217;-88
2022/07/30 04:32:43;;;;;;;10.40;10.10;;;15.90;99.90;;;;;;5123937;27;20311;-88
2022/07/30 04:35:12;;;;;;;10.65;10.35;;;15.90;99.90;;;;;;5125840;27;20233;-88
2022/07/30 04:40:30;;;;;;;10.52;10.23;;;16.00;99.90;;;;;;5125238;28;20243;-88
2022/07/30 04:42:58;;;;;;;10.38;10.07;;;16.00;99.90;;;;;;5126022;27;20232;-88
2022/07/30 04:45:29;;;;;;;10.75;10.45;;;16.10;99.90;;;;;;5125255;27;20233;-88
2022/07/30 04:50:45;;;;;;;10.50;10.20;;;16.20;99.90;;;;;;5133557;27;20250;-87
2022/07/30 04:53:22;;;;;;;10.52;10.23;;;16.30;99.90;;;;;;5140360;27;20249;-88
2022/07/30 04:55:53;;;;;;;10.60;10.30;;;16.30;99.90;;;;;;5127529;28;20228;-88
2022/07/30 04:58:22;;;;;;;10.48;10.18;;;16.40;99.90;;;;;;5127153;27;20220;-87
2022/07/30 05:00:53;;;;;;;10.45;10.15;;;16.40;99.90;;;;;;5128082;28;20238;-88
2022/07/30 05:03:21;;;;;;;10.50;10.20;;;16.40;99.90;;;;;;5141725;22;20241;-81
2022/07/30 05:05:50;;;;;;;10.60;10.30;;;16.50;99.90;;;;;;5108743;28;20269;-82
2022/07/30 05:08:19;;;;;;;10.50;10.20;;;16.50;99.90;;;;;;5116492;28;20260;-81
2022/07/30 05:10:47;;;;;;;10.15;9.85;;;16.50;99.90;;;;;;5121848;28;20224;-82
2022/07/30 05:13:15;;;;;;;10.40;10.10;;;16.50;99.90;;;;;;5118267;28;20229;-82
2022/07/30 05:15:44;;;;;;;10.60;10.30;;;16.50;99.90;;;;;;5128350;28;20236;-82
2022/07/30 05:18:12;;;;;;;10.60;10.30;;;16.60;99.90;;;;;;5121559;28;20230;-82
2022/07/30 05:20:40;;;;;;;10.57;10.27;;;16.60;99.90;;;;;;5120430;28;20232;-82
2022/07/30 05:23:08;;;;;;;10.70;10.40;;;16.60;99.90;;;;;;5108864;28;20243;-82
2022/07/30 05:25:37;;;;;;;10.80;10.50;;;16.60;99.90;;;;;;5100199;28;20229;-82
2022/07/30 05:28:05;;;;;;;10.70;10.40;;;16.60;99.90;;;;;;5100048;28;20240;-82
2022/07/30 05:30:32;;;;;;;10.60;10.30;;;16.60;99.90;;;;;;5101255;28;20675;-82
2022/07/30 05:33:00;;;;;;;10.60;10.30;;;16.60;99.90;;;;;;5101655;28;20237;-82
2022/07/30 05:35:27;;;;;;;10.70;10.40;;;16.60;99.90;;;;;;5109982;28;20218;-83
2022/07/30 05:37:55;;;;;;;10.60;10.30;;;16.70;99.90;;;;;;5112149;28;20289;-82
2022/07/30 05:40:23;;;;;;;11.53;11.13;;;16.70;99.90;;;;;;5106759;28;20422;-81
2022/07/30 05:42:52;;;;;;;11.07;10.68;;;16.80;99.90;;;;;;5110880;28;20444;-81
2022/07/30 05:45:20;;;;;;;11.07;10.68;;;16.90;99.90;;;;;;5104977;28;20279;-81
2022/07/30 05:47:47;;;;;;;10.70;10.40;;;17.00;99.90;;;;;;5113893;28;20241;-83
2022/07/30 05:50:14;;;;;;;10.38;10.07;;;17.10;99.90;;;;;;5120720;28;20232;-82
2022/07/30 05:52:42;;;;;;;10.65;10.35;;;17.10;99.90;;;;;;5126131;28;20236;-83
2022/07/30 05:55:11;;;;;;;10.43;10.13;;;17.10;99.90;;;;;;5124785;28;20308;-83
2022/07/30 05:57:40;;;;;;;10.70;10.40;;;17.20;99.90;;;;;;5120396;28;20229;-82
2022/07/30 06:00:12;;;;;;;10.50;10.20;;;17.20;99.90;;;;;;5114161;28;20221;-82
2022/07/30 06:02:40;;;;;;;10.88;10.57;;;17.00;99.90;;;;;;5103573;28;20248;-83
2022/07/30 06:05:09;;;;;;;10.80;10.50;;;17.00;99.90;;;;;;5103624;28;20238;-82
2022/07/30 06:07:36;;;;;;;10.80;10.50;;;16.90;99.90;;;;;;5103332;28;20249;-82
2022/07/30 06:10:05;;;;;;;10.57;10.27;;;17.00;99.90;;;;;;5104340;28;21018;-82
2022/07/30 06:12:33;;;;;;;10.50;10.20;;;17.10;99.90;;;;;;5104234;28;20289;-83
2022/07/30 06:15:00;;;;;;;10.50;10.20;;;17.20;99.90;;;;;;5104418;28;20260;-82
2022/07/30 06:17:29;;;;;;;10.57;10.27;;;17.30;99.90;;;;;;5115515;28;20268;-82
2022/07/30 06:20:00;;;;;;;10.38;10.07;;;17.40;99.90;;;;;;5115477;28;20282;-82
2022/07/30 06:22:27;;;;;;;10.45;10.15;;;17.50;99.90;;;;;;5113417;28;20235;-82
2022/07/30 06:24:55;;;;;;;10.40;10.10;;;17.60;99.90;;;;;;5119146;28;20323;-82
2022/07/30 06:27:22;;;;;;;10.35;10.05;;;17.70;99.90;;;;;;5102420;28;20271;-82
2022/07/30 06:29:50;;;;;;;10.30;10.00;;;17.80;99.90;;;;;;5102998;28;20279;-82
2022/07/30 06:32:18;;;;;;;10.27;9.98;;;17.90;99.90;;;;;;5103991;28;20225;-82
2022/07/30 06:34:47;;;;;;;10.25;9.95;;;18.00;99.90;;;;;;5104067;28;20300;-82
2022/07/30 06:37:14;;;;;;;10.40;10.10;;;18.10;99.90;;;;;;5112893;28;20286;-82
2022/07/30 06:39:42;;;;;;;10.15;9.85;;;18.30;99.90;;;;;;5119134;28;20323;-82
2022/07/30 06:42:10;;;;;;;9.90;9.60;;;18.40;99.90;;;;;;5124206;28;20260;-82
2022/07/30 06:44:37;;;;;;;9.80;9.50;;;18.40;99.90;;;;;;5123355;27;20240;-82
2022/07/30 06:47:05;;;;;;;9.98;9.68;;;18.50;99.90;;;;;;5123978;28;20328;-82
2022/07/30 06:49:34;;;;;;;9.90;9.60;;;18.50;99.90;;;;;;5124975;28;20236;-83
2022/07/30 06:52:04;;;;;;;9.98;9.68;;;18.60;99.90;;;;;;5123945;28;20288;-81
2022/07/30 06:54:32;;;;;;;9.70;9.40;;;18.60;99.90;;;;;;5123702;28;20229;-82
2022/07/30 06:56:59;;;;;;;9.80;9.50;;;18.70;99.90;;;;;;5123911;28;20724;-81
2022/07/30 06:59:27;;;;;;;9.70;9.40;;;18.70;99.90;;;;;;5111676;28;20312;-83
2022/07/30 07:01:56;;;;;;;9.90;9.60;;;18.80;99.90;;;;;;5106300;28;20230;-83
2022/07/30 07:04:23;;;;;;;9.77;9.48;;;18.80;99.90;;;;;;5102720;28;20234;-83
2022/07/30 07:06:51;;;;;;;9.80;9.50;;;18.90;99.90;;;;;;5103505;28;20321;-82
2022/07/30 07:09:20;;;;;;;10.02;9.73;;;19.00;99.90;;;;;;5102780;28;20272;-84
2022/07/30 07:11:47;;;;;;;9.70;9.40;;;19.20;99.90;;;;;;5103597;28;20321;-83
2022/07/30 07:14:15;;;;;;;9.43;9.13;;;19.30;99.90;;;;;;5102912;28;20260;-82
2022/07/30 07:16:42;;;;;;;9.52;9.23;;;19.30;99.90;;;;;;5102914;28;20293;-81
2022/07/30 07:19:10;;;;;;;9.88;9.57;;;19.30;99.90;;;;;;5102016;28;20226;-81
2022/07/30 07:21:37;;;;;;;9.80;9.50;;;19.20;99.90;;;;;;5102450;28;20251;-80
2022/07/30 07:24:06;;;;;;;9.90;9.60;;;19.10;99.90;;;;;;5103450;28;20238;-82
2022/07/30 07:26:35;;;;;;;9.63;9.32;;;19.10;99.90;;;;;;5107901;28;20235;-82
2022/07/30 07:29:03;;;;;;;9.65;9.35;;;19.20;99.90;;;;;;5104960;28;20233;-84
2022/07/30 07:31:31;;;;;;;9.70;9.40;;;19.20;99.90;;;;;;5102214;28;20341;-81
2022/07/30 07:33:59;;;;;;;9.68;9.38;;;19.20;99.90;;;;;;5101907;28;20233;-80
2022/07/30 07:36:27;;;;;;;9.70;9.40;;;19.20;99.90;;;;;;5101964;28;20265;-81
2022/07/30 07:38:54;;;;;;;9.88;9.57;;;19.20;99.90;;;;;;5110551;28;20289;-80
2022/07/30 07:41:22;;;;;;;9.80;9.50;;;19.30;99.90;;;;;;5105317;28;20233;-81
2022/07/30 07:43:51;;;;;;;9.88;9.57;;;19.50;99.90;;;;;;5105289;28;20237;-85
2022/07/30 07:46:19;;;;;;;9.77;9.48;;;19.60;99.90;;;;;;5103280;28;20221;-83
2022/07/30 07:48:46;;;;;;;10.02;9.73;;;19.60;99.90;;;;;;5103375;28;20245;-81
2022/07/30 07:51:14;;;;;;;10.00;9.70;;;19.70;99.90;;;;;;5102137;28;20300;-82
2022/07/30 07:53:41;;;;;;;10.10;9.80;;;19.80;99.90;;;;;;5103519;28;20237;-83
2022/07/30 07:56:09;;;;;;;10.10;9.80;;;20.00;99.90;;;;;;5102037;28;20252;-80
2022/07/30 07:58:36;;;;;;;9.88;9.57;;;20.10;99.90;;;;;;5103340;28;20285;-80
2022/07/30 08:01:05;;;;;;;9.90;9.60;;;20.10;99.90;;;;;;5104574;28;20237;-84
2022/07/30 08:03:33;;;;;;;9.93;9.63;;;20.20;99.90;;;;;;5111012;28;20245;-80
2022/07/30 08:06:01;;;;;;;9.90;9.60;;;20.20;99.90;;;;;;5108117;28;20260;-80
2022/07/30 08:08:28;;;;;;;10.10;9.80;;;20.20;99.90;;;;;;5104950;28;20324;-80
2022/07/30 08:10:57;;;;;;;10.10;9.80;;;20.30;99.90;;;;;;5106678;28;20264;-80
2022/07/30 08:13:25;;;;;;;9.82;9.52;;;20.50;99.90;;;;;;5105256;28;20287;-80
2022/07/30 08:15:55;;;;;;;9.57;9.27;;;20.70;99.90;;;;;;5103914;28;20233;-79
2022/07/30 08:18:24;;;;;;;9.80;9.50;;;20.80;99.90;;;;;;5105530;28;20229;-80
2022/07/30 08:20:51;;;;;;;10.00;9.70;;;20.80;99.90;;;;;;5106325;28;20228;-80
2022/07/30 08:23:21;;;;;;;9.80;9.50;;;20.90;99.90;;;;;;5108529;28;20229;-80
2022/07/30 08:25:48;;;;;;;9.65;9.35;;;20.80;99.90;;;;;;5105924;28;20232;-79
2022/07/30 08:28:16;;;;;;;9.60;9.30;;;20.70;99.90;;;;;;5118573;28;20790;-79
2022/07/30 08:30:43;;;;;;;9.70;9.40;;;20.60;99.90;;;;;;5128312;28;20232;-80
2022/07/30 08:33:11;;;;;;;10.00;9.70;;;20.60;99.90;;;;;;5127563;28;21051;-81
2022/07/30 08:35:40;;;;;;;9.90;9.60;;;20.50;99.90;;;;;;5126421;28;20264;-81
2022/07/30 08:38:08;;;;;;;9.75;9.45;;;20.40;99.90;;;;;;5126558;28;20231;-81
2022/07/30 08:40:36;;;;;;;9.90;9.60;;;20.40;99.90;;;;;;5106615;28;20237;-82
2022/07/30 08:43:06;;;;;;;10.00;9.70;;;20.50;99.90;;;;;;5127409;28;20263;-81
2022/07/30 08:45:39;;;;;;;9.95;9.65;;;20.50;99.90;;;;;;5124589;28;20248;-81
2022/07/30 08:48:11;;;;;;;10.27;9.98;;;20.50;99.90;;;;;;5107903;28;20222;-83
2022/07/30 08:50:40;;;;;;;10.00;9.70;;;20.60;99.90;;;;;;5106711;28;20229;-81
2022/07/30 08:53:08;;;;;;;10.02;9.73;;;20.70;99.90;;;;;;5107223;28;20260;-81
2022/07/30 08:55:36;;;;;;;9.95;9.65;;;20.70;99.90;;;;;;5106532;28;20293;-83
2022/07/30 08:58:06;;;;;;;10.15;9.85;;;20.70;99.90;;;;;;5105984;28;20244;-82
2022/07/30 09:00:34;;;;;;;10.00;9.70;;;20.60;99.90;;;;;;5107059;28;20230;-82
2022/07/30 09:03:04;;;;;;;9.85;9.55;;;20.60;99.90;;;;;;5113782;28;20271;-82
2022/07/30 09:05:35;;;;;;;9.73;9.43;;;20.60;99.90;;;;;;5116079;28;20247;-82
2022/07/30 09:08:05;;;;;;;10.00;9.70;;;20.70;99.90;;;;;;5115848;28;20261;-82
2022/07/30 09:10:33;;;;;;;10.02;9.73;;;21.00;99.90;;;;;;5114349;28;20217;-83
2022/07/30 09:13:03;;;;;;;10.05;9.75;;;21.30;99.90;;;;;;5114079;28;20241;-82
2022/07/30 09:15:32;;;;;;;10.20;9.90;;;21.70;99.90;;;;;;5114469;28;20221;-81
2022/07/30 09:18:02;;;;;;;10.13;9.82;;;22.20;99.90;;;;;;5125882;28;20244;-81
2022/07/30 09:20:33;;;;;;;9.98;9.68;;;22.00;99.90;;;;;;5132694;28;20284;-81
2022/07/30 09:23:05;;;;;;;10.32;10.02;;;22.10;99.90;;;;;;5108875;28;20276;-81
2022/07/30 09:25:39;;;;;;;10.25;9.95;;;22.10;99.90;;;;;;5114440;28;20236;-82
2022/07/30 09:28:09;;;;;;;10.25;9.95;;;22.10;99.90;;;;;;5123221;28;20243;-81
2022/07/30 09:30:49;;;;;;;10.27;9.98;;;22.20;99.90;;;;;;5134987;28;20225;-80
2022/07/30 09:33:31;;;;;;;10.50;10.20;;;22.30;99.90;;;;;;5136324;28;20242;-80
2022/07/30 09:35:59;;;;;;;10.70;10.40;;;22.40;99.90;;;;;;5134404;28;20252;-82
2022/07/30 09:38:30;;;;;;;10.60;10.30;;;22.70;99.90;;;;;;5131318;28;20213;-84
2022/07/30 09:40:59;;;;;;;10.23;9.93;;;22.90;99.90;;;;;;5139355;28;20217;-85
2022/07/30 09:43:27;;;;;;;10.57;10.27;;;22.90;99.90;;;;;;5140343;28;20228;-85
2022/07/30 09:45:59;;;;;;;10.25;9.95;;;23.10;99.90;;;;;;5140908;27;20232;-84
2022/07/30 09:48:34;;;;;;;10.40;10.10;;;23.40;99.90;;;;;;5141104;27;20266;-81
2022/07/30 09:51:02;;;;;;;10.70;10.40;;;23.50;99.90;;;;;;5133659;27;20228;-82
2022/07/30 09:53:31;;;;;;;10.70;10.40;;;23.20;99.90;;;;;;5134105;27;20239;-82
2022/07/30 09:55:59;;;;;;;10.48;10.18;;;23.50;99.90;;;;;;5124746;27;20213;-82
2022/07/30 09:58:41;;;;;;;10.43;10.13;;;23.40;99.90;;;;;;5128538;27;20267;-87
2022/07/30 10:01:10;;;;;;;10.50;10.20;;;23.50;99.90;;;;;;5131457;27;20221;-82
2022/07/30 10:03:44;;;;;;;10.50;10.20;;;23.50;99.90;;;;;;5139391;27;20247;-84
2022/07/30 10:06:14;;;;;;;10.57;10.27;;;23.70;99.90;;;;;;5135464;27;20225;-87
2022/07/30 10:08:53;;;;;;;10.40;10.10;;;23.60;99.90;;;;;;5125048;28;20259;-85
2022/07/30 10:11:25;;;;;;;10.63;10.32;;;23.40;99.90;;;;;;5115107;28;20312;-83
2022/07/30 10:13:59;;;;;;;10.60;10.30;;;23.30;99.90;;;;;;5103220;28;20248;-85
2022/07/30 10:16:28;;;;;;;10.88;10.57;;;23.20;99.90;;;;;;5110847;28;20255;-85
2022/07/30 10:19:01;;;;;;;10.70;10.40;;;23.00;99.90;;;;;;5102568;28;20240;-85
2022/07/30 10:21:31;;;;;;;10.57;10.27;;;23.50;99.90;;;;;;5101980;28;20236;-84
2022/07/30 10:24:04;;;;;;;10.80;10.50;;;23.90;99.90;;;;;;5101655;28;20264;-83
2022/07/30 10:26:34;;;;;;;10.70;10.40;;;24.30;99.90;;;;;;5102567;28;20354;-83
2022/07/30 10:29:03;;;;;;;10.82;10.52;;;24.30;99.90;;;;;;5118415;28;20247;-84
2022/07/30 10:31:31;;;;;;;10.95;10.65;;;24.70;99.90;;;;;;5103437;28;20229;-83
2022/07/30 10:33:59;;;;;;;11.05;10.75;;;25.00;99.90;;;;;;5102304;28;20292;-83
2022/07/30 10:36:31;;;;;;;11.30;11.00;;;25.50;99.90;;;;;;5101007;28;20268;-83
2022/07/30 10:39:08;;;;;;;11.20;10.90;;;25.30;99.90;;;;;;5100888;28;20217;-85
2022/07/30 10:41:48;;;;;;;11.30;11.00;;;24.80;99.90;;;;;;5101117;28;20253;-82
2022/07/30 10:44:42;;;;;;;11.10;10.80;;;24.80;99.90;;;;;;5113327;28;20233;-83
2022/07/30 10:47:13;;;;;;;10.80;10.50;;;24.50;99.90;;;;;;5103518;28;20321;-82
2022/07/30 10:49:41;;;;;;;10.85;10.55;;;24.30;99.90;;;;;;5110240;28;20232;-80
2022/07/30 10:52:09;;;;;;;10.73;10.43;;;24.10;99.90;;;;;;5120556;28;20229;-81
2022/07/30 10:54:40;;;;;;;10.57;10.27;;;23.90;99.90;;;;;;5121710;28;20248;-83
2022/07/30 10:57:12;;;;;;;10.90;10.60;;;23.70;99.90;;;;;;5106760;28;20233;-80
2022/07/30 11:00:14;;;;;;;10.93;10.63;;;23.60;99.90;;;;;;5114084;28;20221;-81
2022/07/30 11:03:24;;;;;;;10.77;10.48;;;23.60;99.90;;;;;;5110230;28;20237;-83
2022/07/30 11:05:53;;;;;;;10.65;10.35;;;24.00;99.90;;;;;;5122067;22;20241;-82
2022/07/30 11:08:40;;;;;;;10.88;10.57;;;24.30;99.90;;;;;;5117695;28;20237;-82
2022/07/30 11:15:00;;;;;;;10.65;10.35;;;24.00;99.90;;;;;;5106424;28;20233;-83
2022/07/30 11:18:14;;;;;;;10.85;10.55;;;24.00;99.90;;;;;;5090858;28;20283;-83
2022/07/30 11:20:43;;;;;;;10.80;10.50;;;24.20;99.90;;;;;;5044693;28;20290;-82
2022/07/30 11:23:39;;;;;;;10.32;10.02;;;24.60;99.90;;;;;;5071744;28;20226;-84
2022/07/30 11:26:09;;;;;;;10.30;10.00;;;24.80;99.90;;;;;;5066864;28;20294;-84
2022/07/30 11:31:42;;;;;;;10.60;10.30;;;25.20;99.90;;;;;;5065730;28;20245;-83
2022/07/30 11:34:29;;;;;;;10.60;10.30;;;25.50;99.90;;;;;;5072028;28;20211;-84
2022/07/30 11:37:16;;;;;;;11.00;10.70;;;26.10;99.90;;;;;;5068953;28;20231;-84
2022/07/30 11:40:12;;;;;;;10.77;10.48;;;26.20;99.90;;;;;;5069001;28;20238;-83
2022/07/30 11:42:43;;;;;;;10.68;10.38;;;26.40;99.90;;;;;;5068262;28;20223;-83
2022/07/30 11:45:29;;;;;;;10.50;10.20;;;26.90;99.90;;;;;;5066445;28;20219;-83
2022/07/30 11:48:00;;;;;;;10.70;10.40;;;26.90;99.90;;;;;;5066877;28;20287;-82
2022/07/30 11:50:36;;;;;;;10.57;10.27;;;26.50;99.90;;;;;;5077586;28;20282;-81
2022/07/30 11:53:06;;;;;;;10.60;10.30;;;26.30;99.90;;;;;;5071301;28;20234;-82
2022/07/30 11:55:37;;;;;;;10.65;10.35;;;25.80;99.90;;;;;;5066113;28;20325;-83
2022/07/30 11:58:12;;;;;;;10.63;10.32;;;25.30;99.90;;;;;;5083804;28;20229;-83
2022/07/30 12:00:46;;;;;;;10.60;10.30;;;25.10;99.90;;;;;;5096427;28;20231;-83
2022/07/30 12:03:22;;;;;;;10.60;10.30;;;25.00;99.90;;;;;;5102190;28;20222;-81
2022/07/30 12:05:50;;;;;;;10.57;10.27;;;25.00;99.90;;;;;;5112328;28;20222;-81
2022/07/30 12:08:19;;;;;;;11.10;10.80;;;24.90;99.90;;;;;;5108060;28;20253;-81
2022/07/30 12:10:58;;;;;;;11.02;10.73;;;25.00;99.90;;;;;;5116643;28;20253;-82
2022/07/30 12:13:30;;;;;;;11.10;10.80;;;25.10;99.90;;;;;;5107904;28;20221;-83
2022/07/30 12:15:57;;;;;;;10.90;10.60;;;24.70;99.90;;;;;;5106387;28;20217;-80
2022/07/30 12:18:27;;;;;;;10.88;10.57;;;24.30;99.90;;;;;;5089121;28;20263;-84
2022/07/30 12:21:04;;;;;;;10.65;10.35;;;24.10;99.90;;;;;;5105510;28;20233;-84
2022/07/30 12:23:33;;;;;;;10.75;10.45;;;23.90;99.90;;;;;;5103820;28;20268;-85
2022/07/30 12:26:04;;;;;;;10.70;10.40;;;23.50;99.90;;;;;;5102662;28;20293;-84
2022/07/30 12:28:43;;;;;;;10.80;10.50;;;23.20;99.90;;;;;;5103544;28;20221;-82
2022/07/30 12:31:20;;;;;;;10.50;10.20;;;23.20;99.90;;;;;;5104645;28;20275;-85
2022/07/30 12:33:50;;;;;;;10.60;10.30;;;23.20;99.90;;;;;;5104087;28;20236;-85
2022/07/30 12:36:31;;;;;;;10.60;10.30;;;23.10;99.90;;;;;;5097843;28;20233;-85
2022/07/30 12:39:08;;;;;;;10.88;10.57;;;23.10;99.90;;;;;;5089274;28;20222;-86
2022/07/30 12:41:44;;;;;;;10.63;10.32;;;23.10;99.90;;;;;;5081359;28;20233;-83
2022/07/30 12:44:40;;;;;;;10.50;10.20;;;23.20;99.90;;;;;;5083567;28;20316;-84
2022/07/30 12:47:26;;;;;;;10.52;10.23;;;23.30;99.90;;;;;;5083869;28;20321;-85
2022/07/30 12:49:59;;;;;;;10.60;10.30;;;23.50;99.90;;;;;;5084320;28;20288;-84
2022/07/30 12:52:36;;;;;;;10.48;10.18;;;23.70;99.90;;;;;;5082929;28;20226;-84
2022/07/30 12:55:53;;;;;;;10.90;10.60;;;24.00;99.90;;;;;;5083944;28;20236;-88
2022/07/30 12:58:26;;;;;;;10.77;10.48;;;24.80;99.90;;;;;;5083398;28;20241;-81
2022/07/30 13:01:04;;;;;;;10.57;10.27;;;26.00;99.90;;;;;;5102624;28;20233;-84
2022/07/30 13:03:44;;;;;;;10.73;10.43;;;26.60;99.90;;;;;;5105912;28;20237;-84
2022/07/30 13:06:22;;;;;;;10.75;10.45;;;27.00;99.90;;;;;;5103403;28;20320;-83
2022/07/30 13:09:00;;;;;;;10.68;10.38;;;26.90;99.90;;;;;;5109137;27;20229;-81
2022/07/30 13:11:40;;;;;;;10.82;10.52;;;26.60;99.90;;;;;;5113986;27;20735;-84
2022/07/30 13:14:07;;;;;;;10.93;10.63;;;26.70;99.90;;;;;;5103047;28;20278;-82
2022/07/30 13:16:47;;;;;;;11.20;10.90;;;26.90;99.90;;;;;;5100756;28;20221;-81
2022/07/30 13:19:26;;;;;;;10.95;10.65;;;27.10;99.90;;;;;;5101771;28;20217;-81
2022/07/30 13:22:03;;;;;;;10.88;10.57;;;26.80;99.90;;;;;;5101950;28;20260;-84
2022/07/30 13:24:35;;;;;;;10.98;10.68;;;26.90;99.90;;;;;;5101480;28;20260;-83
2022/07/30 13:27:20;;;;;;;;;;;;;;;;;;;;;
2022/07/30 13:29:58;;;;;;;11.00;10.70;;;27.80;99.90;;;;;;5104238;28;21019;-84
2022/07/30 13:32:42;;;;;;;10.98;10.68;;;28.50;99.90;;;;;;5104105;28;20289;-84
2022/07/30 13:35:15;;;;;;;11.00;10.70;;;28.60;99.90;;;;;;5102556;28;20351;-83
2022/07/30 13:40:31;;;;;;;10.80;10.50;;;29.60;99.90;;;;;;5112463;27;20229;-85
2022/07/30 13:43:02;;;;;;;10.52;10.23;;;29.10;99.90;;;;;;5120682;27;20218;-84
2022/07/30 13:45:30;;;;;;;10.68;10.38;;;28.30;99.90;;;;;;5120419;27;20225;-84
2022/07/30 13:48:02;;;;;;;10.40;10.10;;;27.30;99.90;;;;;;5120483;27;20233;-84
2022/07/30 13:50:30;;;;;;;10.68;10.38;;;26.60;99.90;;;;;;5119363;27;20269;-81
2022/07/30 13:52:58;;;;;;;10.80;10.50;;;26.80;99.90;;;;;;5117416;27;20240;-83
2022/07/30 13:55:28;;;;;;;11.10;10.80;;;26.80;99.90;;;;;;5112321;28;20264;-84
2022/07/30 13:58:45;;;;;;;10.70;10.40;;;26.80;99.90;;;;;;5107024;28;20234;-84
2022/07/30 14:35:45;;;;;;;10.77;10.48;;;25.60;99.90;;;;;;5058499;28;20414;-85
2022/07/30 14:38:15;;;;;;;10.90;10.60;;;25.90;99.90;;;;;;5093490;28;20265;-85
2022/07/30 14:40:45;;;;;;;10.77;10.48;;;26.40;99.90;;;;;;5098238;28;20244;-85
2022/07/30 14:43:15;;;;;;;10.90;10.60;;;26.60;99.90;;;;;;5100267;28;20259;-84
2022/07/30 14:45:49;;;;;;;10.90;10.60;;;26.40;99.90;;;;;;5101520;28;20238;-83
2022/07/30 14:48:50;;;;;;;11.13;10.82;;;26.30;99.90;;;;;;5085202;28;20326;-85
2022/07/30 14:51:18;;;;;;;10.90;10.60;;;26.30;99.90;;;;;;5039421;28;20220;-83
2022/07/30 14:53:46;;;;;;;10.90;10.60;;;26.50;99.90;;;;;;5098094;28;20229;-83